sensor_id;sensor_type;location;lat;lon;timestamp;P1;durP1;ratioP1;P2;durP2;ratioP2
13114;SDS011;6623;52.120;8.660;2023-05-21T00:00:09;0.80;;;0.77;;
13114;SDS011;6623;52.120;8.660;2023-05-21T00:02:35;0.70;;;0.70;;
13114;SDS011;6623;52.120;8.660;2023-05-21T00:05:01;0.77;;;0.77;;
13114;SDS011;6623;52.120;8.660;2023-05-21T00:07:27;0.80;;;0.80;;
13114;SDS011;6623;52.120;8.660;2023-05-21T00:09:53;0.70;;;0.70;;
13114;SDS011;6623;52.120;8.660;2023-05-21T00:12:18;0.67;;;0.67;;
13114;SDS011;6623;52.120;8.660;2023-05-21T00:14:44;0.77;;;0.77;;
13114;SDS011;6623;52.120;8.660;2023-05-21T00:17:10;0.70;;;0.70;;
13114;SDS011;6623;52.120;8.660;2023-05-21T00:19:35;0.70;;;0.70;;
13114;SDS011;6623;52.120;8.660;2023-05-21T00:22:00;0.77;;;0.77;;
13114;SDS011;6623;52.120;8.660;2023-05-21T00:24:27;0.70;;;0.70;;
13114;SDS011;6623;52.120;8.660;2023-05-21T00:26:53;0.80;;;0.80;;
13114;SDS011;6623;52.120;8.660;2023-05-21T00:29:19;0.77;;;0.77;;
13114;SDS011;6623;52.120;8.660;2023-05-21T00:31:45;0.70;;;0.70;;
13114;SDS011;6623;52.120;8.660;2023-05-21T00:34:12;0.60;;;0.60;;
13114;SDS011;6623;52.120;8.660;2023-05-21T00:36:37;0.80;;;0.80;;
13114;SDS011;6623;52.120;8.660;2023-05-21T00:39:04;0.80;;;0.80;;
13114;SDS011;6623;52.120;8.660;2023-05-21T00:41:30;0.70;;;0.70;;
13114;SDS011;6623;52.120;8.660;2023-05-21T00:43:55;0.70;;;0.70;;
13114;SDS011;6623;52.120;8.660;2023-05-21T00:46:24;0.70;;;0.70;;
13114;SDS011;6623;52.120;8.660;2023-05-21T00:48:52;0.70;;;0.70;;
13114;SDS011;6623;52.120;8.660;2023-05-21T00:51:18;0.70;;;0.70;;
13114;SDS011;6623;52.120;8.660;2023-05-21T00:53:48;0.70;;;0.70;;
13114;SDS011;6623;52.120;8.660;2023-05-21T00:56:15;0.70;;;0.67;;
13114;SDS011;6623;52.120;8.660;2023-05-21T00:58:41;0.90;;;0.73;;
13114;SDS011;6623;52.120;8.660;2023-05-21T01:01:07;0.93;;;0.83;;
13114;SDS011;6623;52.120;8.660;2023-05-21T01:03:37;0.73;;;0.73;;
13114;SDS011;6623;52.120;8.660;2023-05-21T01:06:04;0.70;;;0.70;;
13114;SDS011;6623;52.120;8.660;2023-05-21T01:08:31;0.80;;;0.70;;
13114;SDS011;6623;52.120;8.660;2023-05-21T01:10:58;0.60;;;0.60;;
13114;SDS011;6623;52.120;8.660;2023-05-21T01:13:25;0.70;;;0.70;;
13114;SDS011;6623;52.120;8.660;2023-05-21T01:15:51;0.90;;;0.80;;
13114;SDS011;6623;52.120;8.660;2023-05-21T01:18:18;0.70;;;0.70;;
13114;SDS011;6623;52.120;8.660;2023-05-21T01:20:44;0.80;;;0.80;;
13114;SDS011;6623;52.120;8.660;2023-05-21T01:23:16;0.70;;;0.70;;
13114;SDS011;6623;52.120;8.660;2023-05-21T01:25:42;0.70;;;0.70;;
13114;SDS011;6623;52.120;8.660;2023-05-21T01:28:08;0.70;;;0.70;;
13114;SDS011;6623;52.120;8.660;2023-05-21T01:30:33;0.80;;;0.80;;
13114;SDS011;6623;52.120;8.660;2023-05-21T01:33:03;0.60;;;0.60;;
13114;SDS011;6623;52.120;8.660;2023-05-21T01:35:38;0.77;;;0.77;;
13114;SDS011;6623;52.120;8.660;2023-05-21T01:38:13;0.70;;;0.70;;
13114;SDS011;6623;52.120;8.660;2023-05-21T01:40:57;0.70;;;0.70;;
13114;SDS011;6623;52.120;8.660;2023-05-21T01:43:30;0.80;;;0.80;;
13114;SDS011;6623;52.120;8.660;2023-05-21T01:45:58;0.97;;;0.83;;
13114;SDS011;6623;52.120;8.660;2023-05-21T01:48:26;0.80;;;0.77;;
13114;SDS011;6623;52.120;8.660;2023-05-21T01:50:53;0.70;;;0.70;;
13114;SDS011;6623;52.120;8.660;2023-05-21T01:53:21;0.80;;;0.80;;
13114;SDS011;6623;52.120;8.660;2023-05-21T01:55:47;0.70;;;0.70;;
13114;SDS011;6623;52.120;8.660;2023-05-21T01:58:13;0.90;;;0.87;;
13114;SDS011;6623;52.120;8.660;2023-05-21T02:00:40;0.60;;;0.60;;
13114;SDS011;6623;52.120;8.660;2023-05-21T02:03:06;0.80;;;0.80;;
13114;SDS011;6623;52.120;8.660;2023-05-21T02:05:31;1.17;;;0.80;;
13114;SDS011;6623;52.120;8.660;2023-05-21T02:07:57;0.97;;;0.90;;
13114;SDS011;6623;52.120;8.660;2023-05-21T02:10:24;0.97;;;0.90;;
13114;SDS011;6623;52.120;8.660;2023-05-21T02:12:49;1.37;;;0.90;;
13114;SDS011;6623;52.120;8.660;2023-05-21T02:15:15;0.80;;;0.80;;
13114;SDS011;6623;52.120;8.660;2023-05-21T02:17:43;0.83;;;0.83;;
13114;SDS011;6623;52.120;8.660;2023-05-21T02:20:09;0.70;;;0.70;;
13114;SDS011;6623;52.120;8.660;2023-05-21T02:22:38;1.10;;;1.00;;
13114;SDS011;6623;52.120;8.660;2023-05-21T02:25:05;0.87;;;0.87;;
13114;SDS011;6623;52.120;8.660;2023-05-21T02:27:32;0.80;;;0.70;;
13114;SDS011;6623;52.120;8.660;2023-05-21T02:29:59;0.77;;;0.77;;
13114;SDS011;6623;52.120;8.660;2023-05-21T02:32:34;0.80;;;0.80;;
13114;SDS011;6623;52.120;8.660;2023-05-21T02:35:01;1.07;;;0.80;;
13114;SDS011;6623;52.120;8.660;2023-05-21T02:37:27;0.70;;;0.70;;
13114;SDS011;6623;52.120;8.660;2023-05-21T02:39:53;0.80;;;0.80;;
13114;SDS011;6623;52.120;8.660;2023-05-21T02:42:22;0.70;;;0.70;;
13114;SDS011;6623;52.120;8.660;2023-05-21T02:44:48;0.90;;;0.90;;
13114;SDS011;6623;52.120;8.660;2023-05-21T02:47:15;0.70;;;0.70;;
13114;SDS011;6623;52.120;8.660;2023-05-21T02:49:40;0.87;;;0.87;;
13114;SDS011;6623;52.120;8.660;2023-05-21T02:52:06;0.70;;;0.70;;
13114;SDS011;6623;52.120;8.660;2023-05-21T02:54:31;0.80;;;0.80;;
13114;SDS011;6623;52.120;8.660;2023-05-21T02:56:57;0.63;;;0.63;;
13114;SDS011;6623;52.120;8.660;2023-05-21T02:59:22;0.80;;;0.80;;
13114;SDS011;6623;52.120;8.660;2023-05-21T03:01:48;0.80;;;0.80;;
13114;SDS011;6623;52.120;8.660;2023-05-21T03:04:14;0.90;;;0.77;;
13114;SDS011;6623;52.120;8.660;2023-05-21T03:06:41;0.80;;;0.80;;
13114;SDS011;6623;52.120;8.660;2023-05-21T03:09:06;0.87;;;0.87;;
13114;SDS011;6623;52.120;8.660;2023-05-21T03:11:32;0.87;;;0.87;;
13114;SDS011;6623;52.120;8.660;2023-05-21T03:13:57;0.87;;;0.87;;
13114;SDS011;6623;52.120;8.660;2023-05-21T03:16:23;1.10;;;1.00;;
13114;SDS011;6623;52.120;8.660;2023-05-21T03:18:48;0.90;;;0.90;;
13114;SDS011;6623;52.120;8.660;2023-05-21T03:21:14;0.90;;;0.90;;
13114;SDS011;6623;52.120;8.660;2023-05-21T03:23:40;0.97;;;0.90;;
13114;SDS011;6623;52.120;8.660;2023-05-21T03:26:06;0.90;;;0.90;;
13114;SDS011;6623;52.120;8.660;2023-05-21T03:28:32;0.90;;;0.80;;
13114;SDS011;6623;52.120;8.660;2023-05-21T03:30:58;0.77;;;0.77;;
13114;SDS011;6623;52.120;8.660;2023-05-21T03:33:24;1.17;;;1.07;;
13114;SDS011;6623;52.120;8.660;2023-05-21T03:35:49;0.90;;;0.90;;
13114;SDS011;6623;52.120;8.660;2023-05-21T03:38:15;0.83;;;0.80;;
13114;SDS011;6623;52.120;8.660;2023-05-21T03:40:40;0.80;;;0.80;;
13114;SDS011;6623;52.120;8.660;2023-05-21T03:43:06;0.97;;;0.93;;
13114;SDS011;6623;52.120;8.660;2023-05-21T03:45:31;0.80;;;0.80;;
13114;SDS011;6623;52.120;8.660;2023-05-21T03:47:57;0.80;;;0.80;;
13114;SDS011;6623;52.120;8.660;2023-05-21T03:50:22;1.07;;;0.97;;
13114;SDS011;6623;52.120;8.660;2023-05-21T03:52:48;0.80;;;0.80;;
13114;SDS011;6623;52.120;8.660;2023-05-21T03:55:13;1.00;;;1.00;;
13114;SDS011;6623;52.120;8.660;2023-05-21T03:57:39;1.10;;;1.00;;
13114;SDS011;6623;52.120;8.660;2023-05-21T04:00:05;0.90;;;0.90;;
13114;SDS011;6623;52.120;8.660;2023-05-21T04:02:32;0.70;;;0.70;;
13114;SDS011;6623;52.120;8.660;2023-05-21T04:04:58;0.73;;;0.73;;
13114;SDS011;6623;52.120;8.660;2023-05-21T04:07:24;0.97;;;0.83;;
13114;SDS011;6623;52.120;8.660;2023-05-21T04:09:51;1.00;;;0.90;;
13114;SDS011;6623;52.120;8.660;2023-05-21T04:12:16;0.93;;;0.90;;
13114;SDS011;6623;52.120;8.660;2023-05-21T04:14:44;1.00;;;0.90;;
13114;SDS011;6623;52.120;8.660;2023-05-21T04:17:10;0.93;;;0.80;;
13114;SDS011;6623;52.120;8.660;2023-05-21T04:19:36;0.90;;;0.90;;
13114;SDS011;6623;52.120;8.660;2023-05-21T04:22:02;0.80;;;0.77;;
13114;SDS011;6623;52.120;8.660;2023-05-21T04:24:28;0.80;;;0.80;;
13114;SDS011;6623;52.120;8.660;2023-05-21T04:26:54;0.90;;;0.90;;
13114;SDS011;6623;52.120;8.660;2023-05-21T04:29:20;0.80;;;0.80;;
13114;SDS011;6623;52.120;8.660;2023-05-21T04:31:48;0.83;;;0.83;;
13114;SDS011;6623;52.120;8.660;2023-05-21T04:34:14;0.93;;;0.90;;
13114;SDS011;6623;52.120;8.660;2023-05-21T04:36:44;0.90;;;0.90;;
13114;SDS011;6623;52.120;8.660;2023-05-21T04:39:13;1.00;;;0.90;;
13114;SDS011;6623;52.120;8.660;2023-05-21T04:41:39;0.80;;;0.80;;
13114;SDS011;6623;52.120;8.660;2023-05-21T04:44:06;1.17;;;1.00;;
13114;SDS011;6623;52.120;8.660;2023-05-21T04:46:32;0.90;;;0.90;;
13114;SDS011;6623;52.120;8.660;2023-05-21T04:48:58;0.70;;;0.70;;
13114;SDS011;6623;52.120;8.660;2023-05-21T04:51:27;0.70;;;0.70;;
13114;SDS011;6623;52.120;8.660;2023-05-21T04:53:53;0.93;;;0.90;;
13114;SDS011;6623;52.120;8.660;2023-05-21T04:56:19;0.70;;;0.70;;
13114;SDS011;6623;52.120;8.660;2023-05-21T04:58:46;1.00;;;0.90;;
13114;SDS011;6623;52.120;8.660;2023-05-21T05:01:15;0.70;;;0.70;;
13114;SDS011;6623;52.120;8.660;2023-05-21T05:03:43;0.80;;;0.80;;
13114;SDS011;6623;52.120;8.660;2023-05-21T05:06:09;1.10;;;1.00;;
13114;SDS011;6623;52.120;8.660;2023-05-21T05:08:35;0.80;;;0.80;;
13114;SDS011;6623;52.120;8.660;2023-05-21T05:11:00;0.90;;;0.90;;
13114;SDS011;6623;52.120;8.660;2023-05-21T05:13:26;0.90;;;0.90;;
13114;SDS011;6623;52.120;8.660;2023-05-21T05:15:52;0.90;;;0.90;;
13114;SDS011;6623;52.120;8.660;2023-05-21T05:18:18;0.77;;;0.77;;
13114;SDS011;6623;52.120;8.660;2023-05-21T05:20:43;1.30;;;1.00;;
13114;SDS011;6623;52.120;8.660;2023-05-21T05:23:10;1.00;;;0.90;;
13114;SDS011;6623;52.120;8.660;2023-05-21T05:25:36;0.73;;;0.73;;
13114;SDS011;6623;52.120;8.660;2023-05-21T05:28:01;1.00;;;0.90;;
13114;SDS011;6623;52.120;8.660;2023-05-21T05:30:27;0.97;;;0.93;;
13114;SDS011;6623;52.120;8.660;2023-05-21T05:32:52;1.00;;;0.90;;
13114;SDS011;6623;52.120;8.660;2023-05-21T05:35:18;0.93;;;0.90;;
13114;SDS011;6623;52.120;8.660;2023-05-21T05:37:44;1.10;;;1.00;;
13114;SDS011;6623;52.120;8.660;2023-05-21T05:40:09;1.13;;;1.03;;
13114;SDS011;6623;52.120;8.660;2023-05-21T05:42:35;1.10;;;1.00;;
13114;SDS011;6623;52.120;8.660;2023-05-21T05:45:00;0.90;;;0.90;;
13114;SDS011;6623;52.120;8.660;2023-05-21T05:47:26;0.90;;;0.90;;
13114;SDS011;6623;52.120;8.660;2023-05-21T05:49:51;0.90;;;0.90;;
13114;SDS011;6623;52.120;8.660;2023-05-21T05:52:17;1.00;;;0.90;;
13114;SDS011;6623;52.120;8.660;2023-05-21T05:54:42;0.80;;;0.80;;
13114;SDS011;6623;52.120;8.660;2023-05-21T05:57:08;1.07;;;0.97;;
13114;SDS011;6623;52.120;8.660;2023-05-21T05:59:33;0.70;;;0.70;;
13114;SDS011;6623;52.120;8.660;2023-05-21T06:01:59;0.97;;;0.90;;
13114;SDS011;6623;52.120;8.660;2023-05-21T06:04:25;0.83;;;0.80;;
13114;SDS011;6623;52.120;8.660;2023-05-21T06:06:53;0.93;;;0.90;;
13114;SDS011;6623;52.120;8.660;2023-05-21T06:09:22;0.80;;;0.80;;
13114;SDS011;6623;52.120;8.660;2023-05-21T06:11:48;1.10;;;1.00;;
13114;SDS011;6623;52.120;8.660;2023-05-21T06:14:14;0.80;;;0.80;;
13114;SDS011;6623;52.120;8.660;2023-05-21T06:16:39;0.83;;;0.83;;
13114;SDS011;6623;52.120;8.660;2023-05-21T06:19:05;0.80;;;0.80;;
13114;SDS011;6623;52.120;8.660;2023-05-21T06:21:30;1.10;;;1.00;;
13114;SDS011;6623;52.120;8.660;2023-05-21T06:23:56;1.10;;;1.00;;
13114;SDS011;6623;52.120;8.660;2023-05-21T06:26:22;1.17;;;1.07;;
13114;SDS011;6623;52.120;8.660;2023-05-21T06:28:47;1.00;;;0.90;;
13114;SDS011;6623;52.120;8.660;2023-05-21T06:31:13;0.80;;;0.80;;
13114;SDS011;6623;52.120;8.660;2023-05-21T06:33:40;0.93;;;0.90;;
13114;SDS011;6623;52.120;8.660;2023-05-21T06:36:05;1.13;;;1.03;;
13114;SDS011;6623;52.120;8.660;2023-05-21T06:38:31;1.10;;;1.00;;
13114;SDS011;6623;52.120;8.660;2023-05-21T06:40:56;1.10;;;1.00;;
13114;SDS011;6623;52.120;8.660;2023-05-21T06:43:22;1.30;;;1.20;;
13114;SDS011;6623;52.120;8.660;2023-05-21T06:45:48;1.10;;;0.90;;
13114;SDS011;6623;52.120;8.660;2023-05-21T06:48:14;0.97;;;0.90;;
13114;SDS011;6623;52.120;8.660;2023-05-21T06:50:42;1.00;;;1.00;;
13114;SDS011;6623;52.120;8.660;2023-05-21T06:53:09;0.90;;;0.90;;
13114;SDS011;6623;52.120;8.660;2023-05-21T06:55:35;1.20;;;1.10;;
13114;SDS011;6623;52.120;8.660;2023-05-21T06:58:01;1.10;;;1.00;;
13114;SDS011;6623;52.120;8.660;2023-05-21T07:00:26;2.00;;;1.00;;
13114;SDS011;6623;52.120;8.660;2023-05-21T07:02:52;1.73;;;0.93;;
13114;SDS011;6623;52.120;8.660;2023-05-21T07:05:18;1.40;;;1.20;;
13114;SDS011;6623;52.120;8.660;2023-05-21T07:07:43;1.20;;;1.10;;
13114;SDS011;6623;52.120;8.660;2023-05-21T07:10:09;1.33;;;1.23;;
13114;SDS011;6623;52.120;8.660;2023-05-21T07:12:34;1.27;;;1.17;;
13114;SDS011;6623;52.120;8.660;2023-05-21T07:15:00;3.33;;;1.70;;
13114;SDS011;6623;52.120;8.660;2023-05-21T07:17:25;2.30;;;1.43;;
13114;SDS011;6623;52.120;8.660;2023-05-21T07:19:51;1.70;;;1.40;;
13114;SDS011;6623;52.120;8.660;2023-05-21T07:22:17;1.30;;;1.20;;
13114;SDS011;6623;52.120;8.660;2023-05-21T07:24:42;1.40;;;1.30;;
13114;SDS011;6623;52.120;8.660;2023-05-21T07:27:08;1.60;;;1.50;;
13114;SDS011;6623;52.120;8.660;2023-05-21T07:29:33;1.60;;;1.40;;
13114;SDS011;6623;52.120;8.660;2023-05-21T07:32:05;3.10;;;1.50;;
13114;SDS011;6623;52.120;8.660;2023-05-21T07:34:30;2.27;;;1.60;;
13114;SDS011;6623;52.120;8.660;2023-05-21T07:36:56;1.50;;;1.40;;
13114;SDS011;6623;52.120;8.660;2023-05-21T07:39:22;1.90;;;1.20;;
13114;SDS011;6623;52.120;8.660;2023-05-21T07:41:47;1.80;;;1.40;;
13114;SDS011;6623;52.120;8.660;2023-05-21T07:44:13;2.83;;;1.50;;
13114;SDS011;6623;52.120;8.660;2023-05-21T07:46:38;1.50;;;1.40;;
13114;SDS011;6623;52.120;8.660;2023-05-21T07:49:04;1.77;;;1.40;;
13114;SDS011;6623;52.120;8.660;2023-05-21T07:51:29;1.40;;;1.30;;
13114;SDS011;6623;52.120;8.660;2023-05-21T07:53:55;1.50;;;1.40;;
13114;SDS011;6623;52.120;8.660;2023-05-21T07:56:21;1.50;;;1.40;;
13114;SDS011;6623;52.120;8.660;2023-05-21T07:58:47;1.53;;;1.40;;
13114;SDS011;6623;52.120;8.660;2023-05-21T08:01:12;2.07;;;1.40;;
13114;SDS011;6623;52.120;8.660;2023-05-21T08:03:38;1.50;;;1.40;;
13114;SDS011;6623;52.120;8.660;2023-05-21T08:06:03;1.30;;;1.20;;
13114;SDS011;6623;52.120;8.660;2023-05-21T08:08:29;4.07;;;1.47;;
13114;SDS011;6623;52.120;8.660;2023-05-21T08:10:54;1.43;;;1.30;;
13114;SDS011;6623;52.120;8.660;2023-05-21T08:13:20;1.40;;;1.30;;
13114;SDS011;6623;52.120;8.660;2023-05-21T08:15:47;1.20;;;1.10;;
13114;SDS011;6623;52.120;8.660;2023-05-21T08:18:13;2.93;;;1.50;;
13114;SDS011;6623;52.120;8.660;2023-05-21T08:20:39;1.83;;;1.60;;
13114;SDS011;6623;52.120;8.660;2023-05-21T08:23:05;1.40;;;1.30;;
13114;SDS011;6623;52.120;8.660;2023-05-21T08:25:30;2.30;;;1.47;;
13114;SDS011;6623;52.120;8.660;2023-05-21T08:27:56;1.60;;;1.50;;
13114;SDS011;6623;52.120;8.660;2023-05-21T08:30:22;1.80;;;1.23;;
13114;SDS011;6623;52.120;8.660;2023-05-21T08:32:47;1.80;;;1.30;;
13114;SDS011;6623;52.120;8.660;2023-05-21T08:35:13;1.73;;;1.30;;
13114;SDS011;6623;52.120;8.660;2023-05-21T08:37:38;1.43;;;1.20;;
13114;SDS011;6623;52.120;8.660;2023-05-21T08:40:04;1.33;;;1.17;;
13114;SDS011;6623;52.120;8.660;2023-05-21T08:42:43;1.50;;;1.30;;
13114;SDS011;6623;52.120;8.660;2023-05-21T08:45:13;2.00;;;1.33;;
13114;SDS011;6623;52.120;8.660;2023-05-21T08:47:43;2.67;;;1.30;;
13114;SDS011;6623;52.120;8.660;2023-05-21T08:50:11;1.70;;;1.43;;
13114;SDS011;6623;52.120;8.660;2023-05-21T08:52:38;1.50;;;1.40;;
13114;SDS011;6623;52.120;8.660;2023-05-21T08:55:03;1.77;;;1.30;;
13114;SDS011;6623;52.120;8.660;2023-05-21T08:57:30;1.47;;;1.37;;
13114;SDS011;6623;52.120;8.660;2023-05-21T08:59:56;1.60;;;1.40;;
13114;SDS011;6623;52.120;8.660;2023-05-21T09:02:22;2.97;;;1.30;;
13114;SDS011;6623;52.120;8.660;2023-05-21T09:04:49;1.43;;;1.30;;
13114;SDS011;6623;52.120;8.660;2023-05-21T09:07:20;1.80;;;1.50;;
13114;SDS011;6623;52.120;8.660;2023-05-21T09:09:54;1.70;;;1.40;;
13114;SDS011;6623;52.120;8.660;2023-05-21T09:12:21;1.50;;;1.40;;
13114;SDS011;6623;52.120;8.660;2023-05-21T09:14:51;1.47;;;1.37;;
13114;SDS011;6623;52.120;8.660;2023-05-21T09:17:17;1.40;;;1.30;;
13114;SDS011;6623;52.120;8.660;2023-05-21T09:22:48;2.20;;;1.40;;
13114;SDS011;6623;52.120;8.660;2023-05-21T09:25:19;4.20;;;1.53;;
13114;SDS011;6623;52.120;8.660;2023-05-21T09:27:48;5.43;;;1.53;;
13114;SDS011;6623;52.120;8.660;2023-05-21T09:30:14;2.60;;;1.40;;
13114;SDS011;6623;52.120;8.660;2023-05-21T09:32:42;4.83;;;1.60;;
13114;SDS011;6623;52.120;8.660;2023-05-21T09:35:12;1.90;;;1.40;;
13114;SDS011;6623;52.120;8.660;2023-05-21T09:37:42;3.80;;;1.63;;
13114;SDS011;6623;52.120;8.660;2023-05-21T09:42:39;3.83;;;1.50;;
13114;SDS011;6623;52.120;8.660;2023-05-21T09:45:06;2.87;;;1.60;;
13114;SDS011;6623;52.120;8.660;2023-05-21T09:47:33;2.00;;;1.27;;
13114;SDS011;6623;52.120;8.660;2023-05-21T09:49:59;3.57;;;1.60;;
13114;SDS011;6623;52.120;8.660;2023-05-21T09:52:24;3.47;;;1.40;;
13114;SDS011;6623;52.120;8.660;2023-05-21T09:54:51;2.83;;;1.47;;
13114;SDS011;6623;52.120;8.660;2023-05-21T09:57:22;3.50;;;1.70;;
13114;SDS011;6623;52.120;8.660;2023-05-21T09:59:48;3.80;;;1.47;;
13114;SDS011;6623;52.120;8.660;2023-05-21T10:02:21;5.30;;;1.50;;
13114;SDS011;6623;52.120;8.660;2023-05-21T10:04:49;4.20;;;1.77;;
13114;SDS011;6623;52.120;8.660;2023-05-21T10:07:21;4.33;;;1.50;;
13114;SDS011;6623;52.120;8.660;2023-05-21T10:09:51;2.67;;;1.40;;
13114;SDS011;6623;52.120;8.660;2023-05-21T10:12:20;3.73;;;1.67;;
13114;SDS011;6623;52.120;8.660;2023-05-21T10:14:49;2.87;;;1.67;;
13114;SDS011;6623;52.120;8.660;2023-05-21T10:17:17;10.50;;;2.47;;
13114;SDS011;6623;52.120;8.660;2023-05-21T10:19:43;9.57;;;2.90;;
13114;SDS011;6623;52.120;8.660;2023-05-21T10:22:11;11.83;;;3.07;;
13114;SDS011;6623;52.120;8.660;2023-05-21T10:24:37;8.20;;;2.50;;
13114;SDS011;6623;52.120;8.660;2023-05-21T10:27:04;6.03;;;2.37;;
13114;SDS011;6623;52.120;8.660;2023-05-21T10:29:31;9.60;;;2.43;;
13114;SDS011;6623;52.120;8.660;2023-05-21T10:31:58;10.93;;;2.90;;
13114;SDS011;6623;52.120;8.660;2023-05-21T10:34:25;7.63;;;2.60;;
13114;SDS011;6623;52.120;8.660;2023-05-21T10:36:53;13.40;;;3.23;;
13114;SDS011;6623;52.120;8.660;2023-05-21T10:39:21;10.47;;;2.97;;
13114;SDS011;6623;52.120;8.660;2023-05-21T10:41:58;7.50;;;2.70;;
13114;SDS011;6623;52.120;8.660;2023-05-21T10:44:37;10.57;;;2.70;;
13114;SDS011;6623;52.120;8.660;2023-05-21T10:47:31;7.63;;;2.83;;
13114;SDS011;6623;52.120;8.660;2023-05-21T11:01:13;7.63;;;2.47;;
13114;SDS011;6623;52.120;8.660;2023-05-21T11:03:39;6.80;;;2.30;;
13114;SDS011;6623;52.120;8.660;2023-05-21T11:06:05;9.20;;;2.80;;
13114;SDS011;6623;52.120;8.660;2023-05-21T11:08:32;9.93;;;2.73;;
13114;SDS011;6623;52.120;8.660;2023-05-21T11:11:02;10.57;;;3.20;;
13114;SDS011;6623;52.120;8.660;2023-05-21T11:13:43;6.50;;;2.40;;
13114;SDS011;6623;52.120;8.660;2023-05-21T11:16:13;6.63;;;2.60;;
13114;SDS011;6623;52.120;8.660;2023-05-21T11:21:07;6.43;;;2.70;;
13114;SDS011;6623;52.120;8.660;2023-05-21T11:26:18;6.90;;;2.33;;
13114;SDS011;6623;52.120;8.660;2023-05-21T11:28:49;7.37;;;2.47;;
13114;SDS011;6623;52.120;8.660;2023-05-21T11:31:35;7.97;;;2.70;;
13114;SDS011;6623;52.120;8.660;2023-05-21T11:36:44;6.03;;;2.63;;
13114;SDS011;6623;52.120;8.660;2023-05-21T11:42:00;3.87;;;2.30;;
13114;SDS011;6623;52.120;8.660;2023-05-21T11:44:38;8.50;;;2.67;;
13114;SDS011;6623;52.120;8.660;2023-05-21T11:47:05;5.57;;;2.50;;
13114;SDS011;6623;52.120;8.660;2023-05-21T11:49:32;4.33;;;2.30;;
13114;SDS011;6623;52.120;8.660;2023-05-21T11:51:59;5.73;;;2.30;;
13114;SDS011;6623;52.120;8.660;2023-05-21T11:54:25;3.90;;;2.10;;
13114;SDS011;6623;52.120;8.660;2023-05-21T11:56:52;7.80;;;2.90;;
13114;SDS011;6623;52.120;8.660;2023-05-21T11:59:18;4.60;;;2.07;;
13114;SDS011;6623;52.120;8.660;2023-05-21T12:01:44;3.83;;;2.50;;
13114;SDS011;6623;52.120;8.660;2023-05-21T12:04:10;4.00;;;2.40;;
13114;SDS011;6623;52.120;8.660;2023-05-21T12:06:36;5.83;;;2.40;;
13114;SDS011;6623;52.120;8.660;2023-05-21T12:09:06;4.93;;;2.40;;
13114;SDS011;6623;52.120;8.660;2023-05-21T12:11:33;5.90;;;2.60;;
13114;SDS011;6623;52.120;8.660;2023-05-21T12:14:00;3.93;;;2.47;;
13114;SDS011;6623;52.120;8.660;2023-05-21T12:16:25;4.47;;;2.17;;
13114;SDS011;6623;52.120;8.660;2023-05-21T12:18:51;5.07;;;2.33;;
13114;SDS011;6623;52.120;8.660;2023-05-21T12:21:18;5.83;;;2.30;;
13114;SDS011;6623;52.120;8.660;2023-05-21T12:23:43;3.50;;;2.33;;
13114;SDS011;6623;52.120;8.660;2023-05-21T12:26:09;4.50;;;2.23;;
13114;SDS011;6623;52.120;8.660;2023-05-21T12:28:34;4.33;;;2.43;;
13114;SDS011;6623;52.120;8.660;2023-05-21T12:31:01;3.57;;;2.20;;
13114;SDS011;6623;52.120;8.660;2023-05-21T12:33:32;3.73;;;2.30;;
13114;SDS011;6623;52.120;8.660;2023-05-21T12:35:58;4.67;;;2.47;;
13114;SDS011;6623;52.120;8.660;2023-05-21T12:38:28;4.43;;;2.30;;
13114;SDS011;6623;52.120;8.660;2023-05-21T12:40:55;2.97;;;2.37;;
13114;SDS011;6623;52.120;8.660;2023-05-21T12:43:20;4.30;;;2.20;;
13114;SDS011;6623;52.120;8.660;2023-05-21T12:45:46;4.27;;;2.20;;
13114;SDS011;6623;52.120;8.660;2023-05-21T12:48:12;4.20;;;2.10;;
13114;SDS011;6623;52.120;8.660;2023-05-21T12:50:38;3.23;;;2.03;;
13114;SDS011;6623;52.120;8.660;2023-05-21T12:53:07;3.87;;;2.30;;
13114;SDS011;6623;52.120;8.660;2023-05-21T12:55:33;3.83;;;2.07;;
13114;SDS011;6623;52.120;8.660;2023-05-21T12:58:00;4.60;;;2.60;;
13114;SDS011;6623;52.120;8.660;2023-05-21T13:00:28;4.33;;;2.23;;
13114;SDS011;6623;52.120;8.660;2023-05-21T13:02:54;3.03;;;2.03;;
13114;SDS011;6623;52.120;8.660;2023-05-21T13:05:20;2.87;;;2.20;;
13114;SDS011;6623;52.120;8.660;2023-05-21T13:07:46;2.60;;;1.90;;
13114;SDS011;6623;52.120;8.660;2023-05-21T13:10:11;4.97;;;2.50;;
13114;SDS011;6623;52.120;8.660;2023-05-21T13:12:37;2.77;;;2.30;;
13114;SDS011;6623;52.120;8.660;2023-05-21T13:15:03;3.87;;;2.33;;
13114;SDS011;6623;52.120;8.660;2023-05-21T13:17:30;3.10;;;2.47;;
13114;SDS011;6623;52.120;8.660;2023-05-21T13:22:41;3.13;;;2.30;;
13114;SDS011;6623;52.120;8.660;2023-05-21T13:25:11;3.23;;;2.20;;
13114;SDS011;6623;52.120;8.660;2023-05-21T13:27:39;4.03;;;2.20;;
13114;SDS011;6623;52.120;8.660;2023-05-21T13:30:06;4.13;;;2.17;;
13114;SDS011;6623;52.120;8.660;2023-05-21T13:32:32;2.57;;;2.20;;
13114;SDS011;6623;52.120;8.660;2023-05-21T13:34:58;2.57;;;1.93;;
13114;SDS011;6623;52.120;8.660;2023-05-21T13:37:23;2.90;;;2.13;;
13114;SDS011;6623;52.120;8.660;2023-05-21T13:39:49;2.70;;;2.27;;
13114;SDS011;6623;52.120;8.660;2023-05-21T13:42:14;3.63;;;2.33;;
13114;SDS011;6623;52.120;8.660;2023-05-21T13:44:40;3.70;;;2.30;;
13114;SDS011;6623;52.120;8.660;2023-05-21T13:47:05;4.20;;;2.50;;
13114;SDS011;6623;52.120;8.660;2023-05-21T13:49:34;2.70;;;2.10;;
13114;SDS011;6623;52.120;8.660;2023-05-21T13:52:00;2.70;;;2.50;;
13114;SDS011;6623;52.120;8.660;2023-05-21T13:54:27;4.50;;;2.50;;
13114;SDS011;6623;52.120;8.660;2023-05-21T13:56:52;3.97;;;2.30;;
13114;SDS011;6623;52.120;8.660;2023-05-21T13:59:18;2.30;;;2.10;;
13114;SDS011;6623;52.120;8.660;2023-05-21T14:01:44;3.67;;;2.70;;
13114;SDS011;6623;52.120;8.660;2023-05-21T14:04:10;4.40;;;2.60;;
13114;SDS011;6623;52.120;8.660;2023-05-21T14:06:36;3.80;;;2.37;;
13114;SDS011;6623;52.120;8.660;2023-05-21T14:09:02;2.60;;;2.00;;
13114;SDS011;6623;52.120;8.660;2023-05-21T14:11:28;2.43;;;2.13;;
13114;SDS011;6623;52.120;8.660;2023-05-21T14:13:56;2.57;;;2.23;;
13114;SDS011;6623;52.120;8.660;2023-05-21T14:16:22;2.83;;;2.40;;
13114;SDS011;6623;52.120;8.660;2023-05-21T14:18:50;3.00;;;2.03;;
13114;SDS011;6623;52.120;8.660;2023-05-21T14:21:15;2.67;;;2.47;;
13114;SDS011;6623;52.120;8.660;2023-05-21T14:23:41;3.00;;;2.70;;
13114;SDS011;6623;52.120;8.660;2023-05-21T14:26:06;2.90;;;2.20;;
13114;SDS011;6623;52.120;8.660;2023-05-21T14:28:32;3.10;;;2.37;;
13114;SDS011;6623;52.120;8.660;2023-05-21T14:30:57;3.17;;;2.57;;
13114;SDS011;6623;52.120;8.660;2023-05-21T14:33:23;6.73;;;2.57;;
13114;SDS011;6623;52.120;8.660;2023-05-21T14:35:48;3.13;;;2.33;;
13114;SDS011;6623;52.120;8.660;2023-05-21T14:38:14;2.60;;;2.40;;
13114;SDS011;6623;52.120;8.660;2023-05-21T14:40:39;2.53;;;2.33;;
13114;SDS011;6623;52.120;8.660;2023-05-21T14:43:05;4.03;;;2.60;;
13114;SDS011;6623;52.120;8.660;2023-05-21T14:45:31;3.07;;;2.63;;
13114;SDS011;6623;52.120;8.660;2023-05-21T14:47:59;2.80;;;2.60;;
13114;SDS011;6623;52.120;8.660;2023-05-21T14:50:32;2.70;;;2.50;;
13114;SDS011;6623;52.120;8.660;2023-05-21T14:53:02;3.43;;;2.67;;
13114;SDS011;6623;52.120;8.660;2023-05-21T14:55:31;3.03;;;2.50;;
13114;SDS011;6623;52.120;8.660;2023-05-21T14:57:58;2.67;;;2.47;;
13114;SDS011;6623;52.120;8.660;2023-05-21T15:00:24;2.90;;;2.60;;
13114;SDS011;6623;52.120;8.660;2023-05-21T15:02:50;3.30;;;2.83;;
13114;SDS011;6623;52.120;8.660;2023-05-21T15:05:16;2.90;;;2.60;;
13114;SDS011;6623;52.120;8.660;2023-05-21T15:07:42;4.67;;;2.90;;
13114;SDS011;6623;52.120;8.660;2023-05-21T15:10:08;3.03;;;2.50;;
13114;SDS011;6623;52.120;8.660;2023-05-21T15:12:34;3.63;;;2.90;;
13114;SDS011;6623;52.120;8.660;2023-05-21T15:15:00;3.20;;;2.63;;
13114;SDS011;6623;52.120;8.660;2023-05-21T15:17:25;3.97;;;2.97;;
13114;SDS011;6623;52.120;8.660;2023-05-21T15:19:51;3.10;;;2.80;;
13114;SDS011;6623;52.120;8.660;2023-05-21T15:22:16;3.93;;;3.00;;
13114;SDS011;6623;52.120;8.660;2023-05-21T15:24:42;2.93;;;2.63;;
13114;SDS011;6623;52.120;8.660;2023-05-21T15:27:08;3.13;;;2.83;;